sensor_id;sensor_type;location;lat;lon;timestamp;pressure;altitude;pressure_sealevel;temperature;humidity
79118;BME280;68523;51.336;-0.846;2023-12-20T00:00:00;101215.0;;;4.65;96.6
79118;BME280;68523;51.336;-0.846;2023-12-20T00:03:00;101215.0;;;4.75;96.3
79118;BME280;68523;51.336;-0.846;2023-12-20T00:06:00;101215.0;;;4.74;96.5
79118;BME280;68523;51.336;-0.846;2023-12-20T00:09:00;101205.0;;;4.79;96.2
79118;BME280;68523;51.336;-0.846;2023-12-20T00:12:00;101205.0;;;4.72;96.5
79118;BME280;68523;51.336;-0.846;2023-12-20T00:15:00;101205.0;;;4.66;96.8
79118;BME280;68523;51.336;-0.846;2023-12-20T00:18:00;101195.0;;;4.65;97.0
79118;BME280;68523;51.336;-0.846;2023-12-20T00:21:00;101185.0;;;4.64;97.0
79118;BME280;68523;51.336;-0.846;2023-12-20T00:24:00;101185.0;;;4.59;97.4
79118;BME280;68523;51.336;-0.846;2023-12-20T00:27:00;101195.0;;;4.59;97.5
79118;BME280;68523;51.336;-0.846;2023-12-20T00:30:00;101205.0;;;4.68;97.2
79118;BME280;68523;51.336;-0.846;2023-12-20T00:33:00;101205.0;;;4.59;97.5
79118;BME280;68523;51.336;-0.846;2023-12-20T00:36:00;101205.0;;;4.71;97.2
79118;BME280;68523;51.336;-0.846;2023-12-20T00:39:00;101205.0;;;4.75;97.1
79118;BME280;68523;51.336;-0.846;2023-12-20T00:42:00;101205.0;;;4.75;97.2
79118;BME280;68523;51.336;-0.846;2023-12-20T00:45:00;101215.0;;;4.71;97.3
79118;BME280;68523;51.336;-0.846;2023-12-20T00:48:00;101205.0;;;4.70;97.5
79118;BME280;68523;51.336;-0.846;2023-12-20T00:51:01;101195.0;;;4.66;97.7
79118;BME280;68523;51.336;-0.846;2023-12-20T00:54:00;101195.0;;;4.59;98.1
79118;BME280;68523;51.336;-0.846;2023-12-20T00:57:00;101185.0;;;4.54;98.1
79118;BME280;68523;51.336;-0.846;2023-12-20T01:00:00;101175.0;;;4.65;98.0
79118;BME280;68523;51.336;-0.846;2023-12-20T01:03:00;101175.0;;;4.63;98.0
79118;BME280;68523;51.336;-0.846;2023-12-20T01:06:00;101185.0;;;4.61;98.1
79118;BME280;68523;51.336;-0.846;2023-12-20T01:09:00;101175.0;;;4.56;98.2
79118;BME280;68523;51.336;-0.846;2023-12-20T01:12:00;101185.0;;;4.64;98.0
79118;BME280;68523;51.336;-0.846;2023-12-20T01:15:00;101185.0;;;4.64;98.1
79118;BME280;68523;51.336;-0.846;2023-12-20T01:18:00;101185.0;;;4.58;98.2
79118;BME280;68523;51.336;-0.846;2023-12-20T01:21:01;101175.0;;;4.51;98.4
79118;BME280;68523;51.336;-0.846;2023-12-20T01:24:00;101175.0;;;4.57;98.2
79118;BME280;68523;51.336;-0.846;2023-12-20T01:27:00;101175.0;;;4.55;98.3
79118;BME280;68523;51.336;-0.846;2023-12-20T01:30:01;101175.0;;;4.60;98.1
79118;BME280;68523;51.336;-0.846;2023-12-20T01:33:01;101165.0;;;4.60;98.1
79118;BME280;68523;51.336;-0.846;2023-12-20T01:36:00;101175.0;;;4.63;98.0
79118;BME280;68523;51.336;-0.846;2023-12-20T01:39:01;101175.0;;;4.62;98.0
79118;BME280;68523;51.336;-0.846;2023-12-20T01:42:00;101185.0;;;4.65;97.9
79118;BME280;68523;51.336;-0.846;2023-12-20T01:45:00;101185.0;;;4.65;97.9
79118;BME280;68523;51.336;-0.846;2023-12-20T01:48:01;101185.0;;;4.64;98.0
79118;BME280;68523;51.336;-0.846;2023-12-20T01:51:02;101185.0;;;4.67;98.0
79118;BME280;68523;51.336;-0.846;2023-12-20T01:54:01;101185.0;;;4.77;97.8
79118;BME280;68523;51.336;-0.846;2023-12-20T01:57:01;101185.0;;;4.75;97.8
79118;BME280;68523;51.336;-0.846;2023-12-20T02:00:00;101185.0;;;4.80;97.7
79118;BME280;68523;51.336;-0.846;2023-12-20T02:03:01;101185.0;;;4.75;97.6
79118;BME280;68523;51.336;-0.846;2023-12-20T02:06:01;101185.0;;;4.76;97.7
79118;BME280;68523;51.336;-0.846;2023-12-20T02:09:00;101185.0;;;4.73;97.5
79118;BME280;68523;51.336;-0.846;2023-12-20T02:12:00;101185.0;;;4.72;97.6
79118;BME280;68523;51.336;-0.846;2023-12-20T02:15:00;101185.0;;;4.73;97.6
79118;BME280;68523;51.336;-0.846;2023-12-20T02:18:00;101175.0;;;4.79;97.4
79118;BME280;68523;51.336;-0.846;2023-12-20T02:21:00;101165.0;;;4.77;97.3
79118;BME280;68523;51.336;-0.846;2023-12-20T02:24:00;101165.0;;;4.81;97.1
79118;BME280;68523;51.336;-0.846;2023-12-20T02:27:00;101155.0;;;4.81;97.1
79118;BME280;68523;51.336;-0.846;2023-12-20T02:30:01;101155.0;;;4.86;96.8
79118;BME280;68523;51.336;-0.846;2023-12-20T02:33:00;101155.0;;;4.80;96.8
79118;BME280;68523;51.336;-0.846;2023-12-20T02:36:00;101155.0;;;4.80;97.0
79118;BME280;68523;51.336;-0.846;2023-12-20T02:39:00;101165.0;;;4.77;97.1
79118;BME280;68523;51.336;-0.846;2023-12-20T02:42:00;101165.0;;;4.76;97.1
79118;BME280;68523;51.336;-0.846;2023-12-20T02:45:00;101165.0;;;4.73;97.1
79118;BME280;68523;51.336;-0.846;2023-12-20T02:48:02;101165.0;;;4.80;96.8
79118;BME280;68523;51.336;-0.846;2023-12-20T02:51:00;101165.0;;;4.80;96.7
79118;BME280;68523;51.336;-0.846;2023-12-20T02:54:00;101165.0;;;4.77;96.9
79118;BME280;68523;51.336;-0.846;2023-12-20T02:57:00;101165.0;;;4.73;97.1
79118;BME280;68523;51.336;-0.846;2023-12-20T03:00:00;101155.0;;;4.68;97.3
79118;BME280;68523;51.336;-0.846;2023-12-20T03:03:00;101145.0;;;4.63;97.4
79118;BME280;68523;51.336;-0.846;2023-12-20T03:06:00;101145.0;;;4.63;97.4
79118;BME280;68523;51.336;-0.846;2023-12-20T03:09:00;101145.0;;;4.57;97.7
79118;BME280;68523;51.336;-0.846;2023-12-20T03:12:00;101135.0;;;4.55;97.6
79118;BME280;68523;51.336;-0.846;2023-12-20T03:15:00;101145.0;;;4.54;97.5
79118;BME280;68523;51.336;-0.846;2023-12-20T03:18:00;101145.0;;;4.54;97.5
79118;BME280;68523;51.336;-0.846;2023-12-20T03:21:00;101145.0;;;4.54;97.6
79118;BME280;68523;51.336;-0.846;2023-12-20T03:24:00;101145.0;;;4.70;97.2
79118;BME280;68523;51.336;-0.846;2023-12-20T03:27:00;101155.0;;;4.65;97.4
79118;BME280;68523;51.336;-0.846;2023-12-20T03:30:00;101155.0;;;4.68;97.2
79118;BME280;68523;51.336;-0.846;2023-12-20T03:33:00;101155.0;;;4.69;97.1
79118;BME280;68523;51.336;-0.846;2023-12-20T03:36:00;101155.0;;;4.73;97.0
79118;BME280;68523;51.336;-0.846;2023-12-20T03:39:00;101155.0;;;4.80;96.8
79118;BME280;68523;51.336;-0.846;2023-12-20T03:42:00;101155.0;;;4.91;96.6
79118;BME280;68523;51.336;-0.846;2023-12-20T03:45:00;101155.0;;;4.96;96.2
79118;BME280;68523;51.336;-0.846;2023-12-20T03:48:00;101165.0;;;5.00;96.2
79118;BME280;68523;51.336;-0.846;2023-12-20T03:51:00;101165.0;;;4.94;96.3
79118;BME280;68523;51.336;-0.846;2023-12-20T03:54:00;101165.0;;;5.02;96.0
79118;BME280;68523;51.336;-0.846;2023-12-20T03:57:00;101165.0;;;4.96;96.2
79118;BME280;68523;51.336;-0.846;2023-12-20T04:00:00;101165.0;;;4.94;96.2
79118;BME280;68523;51.336;-0.846;2023-12-20T04:03:00;101155.0;;;4.91;96.3
79118;BME280;68523;51.336;-0.846;2023-12-20T04:06:00;101155.0;;;4.97;96.1
79118;BME280;68523;51.336;-0.846;2023-12-20T04:09:00;101155.0;;;4.81;96.5
79118;BME280;68523;51.336;-0.846;2023-12-20T04:12:00;101155.0;;;4.82;96.5
79118;BME280;68523;51.336;-0.846;2023-12-20T04:15:00;101155.0;;;4.68;97.0
79118;BME280;68523;51.336;-0.846;2023-12-20T04:18:00;101155.0;;;4.77;96.7
79118;BME280;68523;51.336;-0.846;2023-12-20T04:21:01;101155.0;;;4.69;96.9
79118;BME280;68523;51.336;-0.846;2023-12-20T04:24:00;101145.0;;;4.65;97.0
79118;BME280;68523;51.336;-0.846;2023-12-20T04:27:00;101145.0;;;4.66;97.0
79118;BME280;68523;51.336;-0.846;2023-12-20T04:30:00;101145.0;;;4.61;97.0
79118;BME280;68523;51.336;-0.846;2023-12-20T04:33:00;101145.0;;;4.60;97.1
79118;BME280;68523;51.336;-0.846;2023-12-20T04:36:00;101135.0;;;4.65;96.8
79118;BME280;68523;51.336;-0.846;2023-12-20T04:39:00;101135.0;;;4.71;96.7
79118;BME280;68523;51.336;-0.846;2023-12-20T04:42:00;101125.0;;;4.66;96.7
79118;BME280;68523;51.336;-0.846;2023-12-20T04:45:00;101135.0;;;4.77;96.6
79118;BME280;68523;51.336;-0.846;2023-12-20T04:48:01;101135.0;;;4.83;96.2
79118;BME280;68523;51.336;-0.846;2023-12-20T04:51:00;101145.0;;;4.86;96.3
79118;BME280;68523;51.336;-0.846;2023-12-20T04:54:01;101145.0;;;4.98;95.8
79118;BME280;68523;51.336;-0.846;2023-12-20T04:57:00;101145.0;;;5.10;95.4
79118;BME280;68523;51.336;-0.846;2023-12-20T05:00:00;101145.0;;;5.25;95.2
79118;BME280;68523;51.336;-0.846;2023-12-20T05:03:00;101145.0;;;5.28;95.2
79118;BME280;68523;51.336;-0.846;2023-12-20T05:06:01;101145.0;;;5.47;94.5
79118;BME280;68523;51.336;-0.846;2023-12-20T05:09:00;101145.0;;;5.47;94.6
79118;BME280;68523;51.336;-0.846;2023-12-20T05:12:01;101145.0;;;5.47;94.8
79118;BME280;68523;51.336;-0.846;2023-12-20T05:15:00;101145.0;;;5.49;94.8
79118;BME280;68523;51.336;-0.846;2023-12-20T05:18:00;101135.0;;;5.56;94.7
79118;BME280;68523;51.336;-0.846;2023-12-20T05:21:00;101135.0;;;5.64;94.6
79118;BME280;68523;51.336;-0.846;2023-12-20T05:24:00;101125.0;;;5.60;94.8
79118;BME280;68523;51.336;-0.846;2023-12-20T05:27:00;101125.0;;;5.70;94.5
79118;BME280;68523;51.336;-0.846;2023-12-20T05:30:00;101125.0;;;5.65;94.8
79118;BME280;68523;51.336;-0.846;2023-12-20T05:33:00;101115.0;;;5.62;95.1
79118;BME280;68523;51.336;-0.846;2023-12-20T05:36:00;101115.0;;;5.62;95.2
79118;BME280;68523;51.336;-0.846;2023-12-20T05:39:00;101115.0;;;5.65;95.0
79118;BME280;68523;51.336;-0.846;2023-12-20T05:42:00;101115.0;;;5.57;95.4
79118;BME280;68523;51.336;-0.846;2023-12-20T05:45:00;101105.0;;;5.63;95.0
79118;BME280;68523;51.336;-0.846;2023-12-20T05:48:00;101095.0;;;5.52;95.6
79118;BME280;68523;51.336;-0.846;2023-12-20T05:51:00;101095.0;;;5.53;95.5
79118;BME280;68523;51.336;-0.846;2023-12-20T05:54:00;101095.0;;;5.49;95.6
79118;BME280;68523;51.336;-0.846;2023-12-20T05:57:00;101095.0;;;5.44;96.0
79118;BME280;68523;51.336;-0.846;2023-12-20T06:00:00;101095.0;;;5.45;96.0
79118;BME280;68523;51.336;-0.846;2023-12-20T06:03:00;101095.0;;;5.46;96.1
79118;BME280;68523;51.336;-0.846;2023-12-20T06:06:05;101105.0;;;5.41;96.3
79118;BME280;68523;51.336;-0.846;2023-12-20T06:09:00;101105.0;;;5.39;96.4
79118;BME280;68523;51.336;-0.846;2023-12-20T06:12:00;101105.0;;;5.41;96.2
79118;BME280;68523;51.336;-0.846;2023-12-20T06:15:00;101115.0;;;5.53;96.1
79118;BME280;68523;51.336;-0.846;2023-12-20T06:18:00;101105.0;;;5.64;95.9
79118;BME280;68523;51.336;-0.846;2023-12-20T06:21:00;101105.0;;;5.55;96.3
79118;BME280;68523;51.336;-0.846;2023-12-20T06:24:00;101095.0;;;5.65;96.2
79118;BME280;68523;51.336;-0.846;2023-12-20T06:27:00;101105.0;;;5.75;96.1
79118;BME280;68523;51.336;-0.846;2023-12-20T06:30:00;101105.0;;;5.71;96.2
79118;BME280;68523;51.336;-0.846;2023-12-20T06:33:00;101105.0;;;5.77;96.2
79118;BME280;68523;51.336;-0.846;2023-12-20T06:36:00;101095.0;;;5.78;96.3
79118;BME280;68523;51.336;-0.846;2023-12-20T06:39:00;101105.0;;;5.92;96.1
79118;BME280;68523;51.336;-0.846;2023-12-20T06:42:00;101105.0;;;5.96;95.9
79118;BME280;68523;51.336;-0.846;2023-12-20T06:45:00;101095.0;;;5.89;96.2
79118;BME280;68523;51.336;-0.846;2023-12-20T06:48:00;101105.0;;;5.99;96.1
79118;BME280;68523;51.336;-0.846;2023-12-20T06:51:01;101105.0;;;6.01;96.2
79118;BME280;68523;51.336;-0.846;2023-12-20T06:54:00;101105.0;;;5.95;96.3
79118;BME280;68523;51.336;-0.846;2023-12-20T06:57:00;101105.0;;;6.13;96.0
79118;BME280;68523;51.336;-0.846;2023-12-20T07:00:00;101105.0;;;6.26;95.8
79118;BME280;68523;51.336;-0.846;2023-12-20T07:03:00;101105.0;;;6.36;95.6
79118;BME280;68523;51.336;-0.846;2023-12-20T07:06:00;101115.0;;;6.21;95.9
79118;BME280;68523;51.336;-0.846;2023-12-20T07:09:00;101115.0;;;6.31;95.7
79118;BME280;68523;51.336;-0.846;2023-12-20T07:12:01;101105.0;;;6.29;95.9
79118;BME280;68523;51.336;-0.846;2023-12-20T07:15:00;101105.0;;;6.42;95.4
79118;BME280;68523;51.336;-0.846;2023-12-20T07:18:00;101095.0;;;6.48;95.4
79118;BME280;68523;51.336;-0.846;2023-12-20T07:21:00;101085.0;;;6.59;95.2
79118;BME280;68523;51.336;-0.846;2023-12-20T07:24:00;101085.0;;;6.62;95.4
79118;BME280;68523;51.336;-0.846;2023-12-20T07:27:00;101065.0;;;6.73;95.0
79118;BME280;68523;51.336;-0.846;2023-12-20T07:30:00;101055.0;;;6.70;95.2
79118;BME280;68523;51.336;-0.846;2023-12-20T07:33:00;101045.0;;;6.75;95.1
79118;BME280;68523;51.336;-0.846;2023-12-20T07:36:00;101055.0;;;6.69;95.3
79118;BME280;68523;51.336;-0.846;2023-12-20T07:39:00;101075.0;;;6.69;95.4
79118;BME280;68523;51.336;-0.846;2023-12-20T07:42:00;101065.0;;;6.71;95.4
79118;BME280;68523;51.336;-0.846;2023-12-20T07:45:00;101065.0;;;6.76;95.2
79118;BME280;68523;51.336;-0.846;2023-12-20T07:48:00;101085.0;;;6.90;94.8
79118;BME280;68523;51.336;-0.846;2023-12-20T07:51:00;101095.0;;;6.83;95.1
79118;BME280;68523;51.336;-0.846;2023-12-20T07:54:00;101085.0;;;6.87;95.2
79118;BME280;68523;51.336;-0.846;2023-12-20T07:57:00;101085.0;;;6.99;94.8
79118;BME280;68523;51.336;-0.846;2023-12-20T08:00:00;101095.0;;;7.06;94.7
79118;BME280;68523;51.336;-0.846;2023-12-20T08:03:00;101085.0;;;7.04;94.7
79118;BME280;68523;51.336;-0.846;2023-12-20T08:09:00;101105.0;;;7.06;94.7
79118;BME280;68523;51.336;-0.846;2023-12-20T08:12:00;101115.0;;;7.05;94.7
79118;BME280;68523;51.336;-0.846;2023-12-20T08:15:01;101125.0;;;7.02;94.9
79118;BME280;68523;51.336;-0.846;2023-12-20T08:18:00;101125.0;;;7.02;94.9
79118;BME280;68523;51.336;-0.846;2023-12-20T08:21:00;101125.0;;;7.06;94.7
79118;BME280;68523;51.336;-0.846;2023-12-20T08:24:00;101135.0;;;7.00;94.9
79118;BME280;68523;51.336;-0.846;2023-12-20T08:27:00;101135.0;;;7.12;94.6
79118;BME280;68523;51.336;-0.846;2023-12-20T08:30:00;101135.0;;;7.09;94.7
79118;BME280;68523;51.336;-0.846;2023-12-20T08:33:00;101115.0;;;7.06;94.8
79118;BME280;68523;51.336;-0.846;2023-12-20T08:36:00;101125.0;;;7.12;94.8
79118;BME280;68523;51.336;-0.846;2023-12-20T08:39:00;101125.0;;;7.20;94.5
79118;BME280;68523;51.336;-0.846;2023-12-20T08:42:00;101115.0;;;7.30;94.2
79118;BME280;68523;51.336;-0.846;2023-12-20T08:45:00;101115.0;;;7.31;94.3
79118;BME280;68523;51.336;-0.846;2023-12-20T08:48:01;101115.0;;;7.34;94.2
79118;BME280;68523;51.336;-0.846;2023-12-20T08:51:00;101115.0;;;7.40;94.2
79118;BME280;68523;51.336;-0.846;2023-12-20T08:54:00;101115.0;;;7.46;94.1
79118;BME280;68523;51.336;-0.846;2023-12-20T08:57:00;101115.0;;;7.51;94.1
79118;BME280;68523;51.336;-0.846;2023-12-20T09:00:00;101105.0;;;7.50;94.2
79118;BME280;68523;51.336;-0.846;2023-12-20T09:03:01;101095.0;;;7.52;93.9
79118;BME280;68523;51.336;-0.846;2023-12-20T09:06:01;101095.0;;;7.57;93.9
79118;BME280;68523;51.336;-0.846;2023-12-20T09:09:00;101095.0;;;7.61;93.9
79118;BME280;68523;51.336;-0.846;2023-12-20T09:12:00;101105.0;;;7.67;94.0
79118;BME280;68523;51.336;-0.846;2023-12-20T09:15:00;101105.0;;;7.70;94.1
79118;BME280;68523;51.336;-0.846;2023-12-20T09:18:01;101095.0;;;7.73;93.9
79118;BME280;68523;51.336;-0.846;2023-12-20T09:21:00;101085.0;;;7.81;93.8
79118;BME280;68523;51.336;-0.846;2023-12-20T09:24:00;101095.0;;;7.96;93.5
79118;BME280;68523;51.336;-0.846;2023-12-20T09:27:00;101095.0;;;8.12;92.9
79118;BME280;68523;51.336;-0.846;2023-12-20T09:30:00;101105.0;;;8.09;93.1
79118;BME280;68523;51.336;-0.846;2023-12-20T09:33:00;101095.0;;;8.13;93.3
79118;BME280;68523;51.336;-0.846;2023-12-20T09:36:00;101115.0;;;8.16;93.3
79118;BME280;68523;51.336;-0.846;2023-12-20T09:39:00;101115.0;;;8.16;93.5
79118;BME280;68523;51.336;-0.846;2023-12-20T09:42:02;101115.0;;;8.12;93.6
79118;BME280;68523;51.336;-0.846;2023-12-20T09:45:02;101105.0;;;8.14;93.4
79118;BME280;68523;51.336;-0.846;2023-12-20T09:48:01;101105.0;;;8.14;93.7
79118;BME280;68523;51.336;-0.846;2023-12-20T09:51:01;101105.0;;;8.18;93.4
79118;BME280;68523;51.336;-0.846;2023-12-20T09:54:02;101105.0;;;8.21;93.5
79118;BME280;68523;51.336;-0.846;2023-12-20T09:57:00;101105.0;;;8.23;93.4
79118;BME280;68523;51.336;-0.846;2023-12-20T10:00:01;101095.0;;;8.22;93.5
79118;BME280;68523;51.336;-0.846;2023-12-20T10:03:00;101105.0;;;8.25;93.3
79118;BME280;68523;51.336;-0.846;2023-12-20T10:06:00;101105.0;;;8.24;93.5
79118;BME280;68523;51.336;-0.846;2023-12-20T10:09:01;101105.0;;;8.32;93.4
79118;BME280;68523;51.336;-0.846;2023-12-20T10:12:00;101105.0;;;8.38;93.0
79118;BME280;68523;51.336;-0.846;2023-12-20T10:15:00;101105.0;;;8.45;92.8
79118;BME280;68523;51.336;-0.846;2023-12-20T10:18:01;101095.0;;;8.45;92.7
79118;BME280;68523;51.336;-0.846;2023-12-20T10:21:00;101095.0;;;8.49;92.6
79118;BME280;68523;51.336;-0.846;2023-12-20T10:24:00;101105.0;;;8.49;92.7
79118;BME280;68523;51.336;-0.846;2023-12-20T10:27:01;101115.0;;;8.63;92.0
79118;BME280;68523;51.336;-0.846;2023-12-20T10:30:00;101115.0;;;8.61;92.2
79118;BME280;68523;51.336;-0.846;2023-12-20T10:33:00;101115.0;;;8.72;91.8
79118;BME280;68523;51.336;-0.846;2023-12-20T10:36:00;101115.0;;;8.69;91.9
79118;BME280;68523;51.336;-0.846;2023-12-20T10:39:01;101105.0;;;8.78;91.7
79118;BME280;68523;51.336;-0.846;2023-12-20T10:42:00;101105.0;;;8.79;91.8
79118;BME280;68523;51.336;-0.846;2023-12-20T10:45:01;101105.0;;;8.86;91.4
79118;BME280;68523;51.336;-0.846;2023-12-20T10:48:01;101105.0;;;8.88;91.5
79118;BME280;68523;51.336;-0.846;2023-12-20T10:51:01;101105.0;;;8.96;91.1
79118;BME280;68523;51.336;-0.846;2023-12-20T10:54:00;101105.0;;;8.96;91.2
79118;BME280;68523;51.336;-0.846;2023-12-20T10:57:05;101085.0;;;8.95;91.6
79118;BME280;68523;51.336;-0.846;2023-12-20T11:00:01;101085.0;;;8.95;91.6
79118;BME280;68523;51.336;-0.846;2023-12-20T11:03:01;101085.0;;;8.98;91.6
79118;BME280;68523;51.336;-0.846;2023-12-20T11:06:05;101075.0;;;8.99;91.6
79118;BME280;68523;51.336;-0.846;2023-12-20T11:09:10;101075.0;;;9.03;91.5
79118;BME280;68523;51.336;-0.846;2023-12-20T11:12:05;101055.0;;;9.00;91.7
79118;BME280;68523;51.336;-0.846;2023-12-20T11:15:00;101045.0;;;9.05;91.5
79118;BME280;68523;51.336;-0.846;2023-12-20T11:18:00;101035.0;;;9.06;91.3
79118;BME280;68523;51.336;-0.846;2023-12-20T11:21:01;101025.0;;;9.09;91.2
79118;BME280;68523;51.336;-0.846;2023-12-20T11:24:01;101015.0;;;9.07;91.6
79118;BME280;68523;51.336;-0.846;2023-12-20T11:27:01;101005.0;;;9.09;91.6
79118;BME280;68523;51.336;-0.846;2023-12-20T11:30:03;100995.0;;;9.09;91.5
79118;BME280;68523;51.336;-0.846;2023-12-20T11:33:00;100995.0;;;9.08;91.4
79118;BME280;68523;51.336;-0.846;2023-12-20T11:36:00;101005.0;;;9.10;91.5
79118;BME280;68523;51.336;-0.846;2023-12-20T11:39:00;100995.0;;;9.10;91.3
79118;BME280;68523;51.336;-0.846;2023-12-20T11:42:04;101005.0;;;9.16;91.4
79118;BME280;68523;51.336;-0.846;2023-12-20T11:45:02;100985.0;;;9.18;91.5
79118;BME280;68523;51.336;-0.846;2023-12-20T11:48:01;100975.0;;;9.32;91.2
79118;BME280;68523;51.336;-0.846;2023-12-20T11:51:00;100975.0;;;9.39;90.9
79118;BME280;68523;51.336;-0.846;2023-12-20T11:54:00;100975.0;;;9.45;90.3
79118;BME280;68523;51.336;-0.846;2023-12-20T11:57:00;100975.0;;;9.49;90.0
79118;BME280;68523;51.336;-0.846;2023-12-20T12:00:01;100965.0;;;9.53;90.2
79118;BME280;68523;51.336;-0.846;2023-12-20T12:03:00;100955.0;;;9.59;90.2
79118;BME280;68523;51.336;-0.846;2023-12-20T12:06:01;100955.0;;;9.47;90.7
79118;BME280;68523;51.336;-0.846;2023-12-20T12:09:00;100945.0;;;9.44;90.6
79118;BME280;68523;51.336;-0.846;2023-12-20T12:12:01;100955.0;;;9.48;90.5
79118;BME280;68523;51.336;-0.846;2023-12-20T12:15:00;100945.0;;;9.47;90.5
79118;BME280;68523;51.336;-0.846;2023-12-20T12:18:00;100955.0;;;9.46;90.3
79118;BME280;68523;51.336;-0.846;2023-12-20T12:21:00;100935.0;;;9.42;90.3
79118;BME280;68523;51.336;-0.846;2023-12-20T12:24:06;100915.0;;;9.53;90.6
79118;BME280;68523;51.336;-0.846;2023-12-20T12:27:00;100905.0;;;9.56;90.2
79118;BME280;68523;51.336;-0.846;2023-12-20T12:30:02;100915.0;;;9.64;90.0
79118;BME280;68523;51.336;-0.846;2023-12-20T12:33:00;100895.0;;;9.83;89.7
79118;BME280;68523;51.336;-0.846;2023-12-20T12:36:00;100895.0;;;9.83;89.4
79118;BME280;68523;51.336;-0.846;2023-12-20T12:39:02;100885.0;;;9.99;89.4
79118;BME280;68523;51.336;-0.846;2023-12-20T12:42:00;100865.0;;;9.96;89.4
79118;BME280;68523;51.336;-0.846;2023-12-20T12:45:00;100875.0;;;9.94;89.3
79118;BME280;68523;51.336;-0.846;2023-12-20T12:48:00;100885.0;;;9.90;89.5
79118;BME280;68523;51.336;-0.846;2023-12-20T12:51:00;100875.0;;;9.80;89.8
79118;BME280;68523;51.336;-0.846;2023-12-20T12:54:00;100875.0;;;9.81;89.9
79118;BME280;68523;51.336;-0.846;2023-12-20T12:57:00;100865.0;;;9.79;90.4
79118;BME280;68523;51.336;-0.846;2023-12-20T13:00:00;100855.0;;;9.78;90.0
79118;BME280;68523;51.336;-0.846;2023-12-20T13:03:00;100855.0;;;9.84;89.7
79118;BME280;68523;51.336;-0.846;2023-12-20T13:06:00;100835.0;;;9.83;89.9
79118;BME280;68523;51.336;-0.846;2023-12-20T13:09:00;100845.0;;;9.84;89.6
79118;BME280;68523;51.336;-0.846;2023-12-20T13:12:00;100835.0;;;9.91;89.7
79118;BME280;68523;51.336;-0.846;2023-12-20T13:15:00;100835.0;;;9.93;89.8
79118;BME280;68523;51.336;-0.846;2023-12-20T13:18:00;100825.0;;;9.95;89.6
79118;BME280;68523;51.336;-0.846;2023-12-20T13:21:00;100825.0;;;10.05;89.0
79118;BME280;68523;51.336;-0.846;2023-12-20T13:24:00;100825.0;;;10.03;88.6
79118;BME280;68523;51.336;-0.846;2023-12-20T13:27:00;100835.0;;;9.99;88.9
79118;BME280;68523;51.336;-0.846;2023-12-20T13:30:00;100825.0;;;10.07;88.6
79118;BME280;68523;51.336;-0.846;2023-12-20T13:33:00;100825.0;;;10.08;88.4
79118;BME280;68523;51.336;-0.846;2023-12-20T13:36:00;100825.0;;;10.14;88.8
79118;BME280;68523;51.336;-0.846;2023-12-20T13:39:00;100815.0;;;10.13;89.0
79118;BME280;68523;51.336;-0.846;2023-12-20T13:42:00;100805.0;;;10.07;89.1
79118;BME280;68523;51.336;-0.846;2023-12-20T13:45:00;100795.0;;;10.05;88.8
79118;BME280;68523;51.336;-0.846;2023-12-20T13:48:00;100785.0;;;10.10;88.2
79118;BME280;68523;51.336;-0.846;2023-12-20T13:51:00;100765.0;;;10.09;88.6
79118;BME280;68523;51.336;-0.846;2023-12-20T13:54:00;100755.0;;;10.08;88.8
79118;BME280;68523;51.336;-0.846;2023-12-20T13:57:00;100745.0;;;10.08;89.1
79118;BME280;68523;51.336;-0.846;2023-12-20T14:00:00;100745.0;;;10.09;88.9
79118;BME280;68523;51.336;-0.846;2023-12-20T14:03:00;100745.0;;;10.14;88.8
79118;BME280;68523;51.336;-0.846;2023-12-20T14:06:00;100745.0;;;10.17;88.6
79118;BME280;68523;51.336;-0.846;2023-12-20T14:09:00;100745.0;;;10.20;88.2
79118;BME280;68523;51.336;-0.846;2023-12-20T14:12:00;100735.0;;;10.17;88.7
79118;BME280;68523;51.336;-0.846;2023-12-20T14:15:00;100735.0;;;10.20;88.5
79118;BME280;68523;51.336;-0.846;2023-12-20T14:18:00;100745.0;;;10.17;88.6
79118;BME280;68523;51.336;-0.846;2023-12-20T14:21:00;100735.0;;;10.16;88.8
79118;BME280;68523;51.336;-0.846;2023-12-20T14:24:00;100715.0;;;10.14;88.8
79118;BME280;68523;51.336;-0.846;2023-12-20T14:27:00;100725.0;;;10.09;88.9
79118;BME280;68523;51.336;-0.846;2023-12-20T14:30:00;100725.0;;;10.13;88.9
79118;BME280;68523;51.336;-0.846;2023-12-20T14:33:00;100715.0;;;10.10;88.9
79118;BME280;68523;51.336;-0.846;2023-12-20T14:36:00;100705.0;;;10.08;89.0
79118;BME280;68523;51.336;-0.846;2023-12-20T14:39:00;100695.0;;;10.12;88.9
79118;BME280;68523;51.336;-0.846;2023-12-20T14:42:00;100685.0;;;10.14;88.9
79118;BME280;68523;51.336;-0.846;2023-12-20T14:45:00;100695.0;;;10.12;89.0
79118;BME280;68523;51.336;-0.846;2023-12-20T14:48:00;100685.0;;;10.09;89.1
79118;BME280;68523;51.336;-0.846;2023-12-20T14:51:00;100695.0;;;10.07;89.4
79118;BME280;68523;51.336;-0.846;2023-12-20T14:54:01;100705.0;;;10.10;89.4
79118;BME280;68523;51.336;-0.846;2023-12-20T14:57:00;100715.0;;;10.17;89.3
79118;BME280;68523;51.336;-0.846;2023-12-20T15:00:00;100715.0;;;10.12;89.5
79118;BME280;68523;51.336;-0.846;2023-12-20T15:03:00;100695.0;;;10.10;89.6
79118;BME280;68523;51.336;-0.846;2023-12-20T15:06:00;100685.0;;;10.10;89.7
79118;BME280;68523;51.336;-0.846;2023-12-20T15:09:00;100685.0;;;10.11;89.9
79118;BME280;68523;51.336;-0.846;2023-12-20T15:12:00;100695.0;;;10.06;90.6
79118;BME280;68523;51.336;-0.846;2023-12-20T15:15:00;100695.0;;;10.00;91.3
79118;BME280;68523;51.336;-0.846;2023-12-20T15:18:00;100695.0;;;10.00;91.3
79118;BME280;68523;51.336;-0.846;2023-12-20T15:21:00;100665.0;;;10.06;91.2
79118;BME280;68523;51.336;-0.846;2023-12-20T15:24:01;100665.0;;;10.02;91.6
79118;BME280;68523;51.336;-0.846;2023-12-20T15:27:00;100675.0;;;10.08;91.4
79118;BME280;68523;51.336;-0.846;2023-12-20T15:30:00;100665.0;;;10.09;91.3
79118;BME280;68523;51.336;-0.846;2023-12-20T15:33:00;100675.0;;;10.09;91.3
79118;BME280;68523;51.336;-0.846;2023-12-20T15:36:00;100675.0;;;10.08;91.6
79118;BME280;68523;51.336;-0.846;2023-12-20T15:39:00;100675.0;;;10.08;91.5
79118;BME280;68523;51.336;-0.846;2023-12-20T15:42:00;100675.0;;;10.12;91.3
79118;BME280;68523;51.336;-0.846;2023-12-20T15:45:00;100655.0;;;10.09;91.3
79118;BME280;68523;51.336;-0.846;2023-12-20T15:48:00;100665.0;;;10.08;91.4
79118;BME280;68523;51.336;-0.846;2023-12-20T15:51:04;100665.0;;;10.04;91.8
79118;BME280;68523;51.336;-0.846;2023-12-20T15:54:00;100665.0;;;10.04;91.7
79118;BME280;68523;51.336;-0.846;2023-12-20T15:57:00;100665.0;;;10.06;91.7
79118;BME280;68523;51.336;-0.846;2023-12-20T16:00:05;100665.0;;;10.01;91.9
79118;BME280;68523;51.336;-0.846;2023-12-20T16:03:00;100665.0;;;10.01;91.9
79118;BME280;68523;51.336;-0.846;2023-12-20T16:06:00;100665.0;;;10.03;91.8